sensor_id;sensor_type;location;lat;lon;timestamp;P1;durP1;ratioP1;P2;durP2;ratioP2
76795;SDS011;65745;50.278;18.192;2022-12-29T00:01:59;7.90;;;5.20;;
76795;SDS011;65745;50.278;18.192;2022-12-29T00:04:31;5.70;;;5.10;;
76795;SDS011;65745;50.278;18.192;2022-12-29T00:07:03;8.40;;;5.40;;
76795;SDS011;65745;50.278;18.192;2022-12-29T00:09:36;8.00;;;5.50;;
76795;SDS011;65745;50.278;18.192;2022-12-29T00:12:09;6.90;;;4.40;;
76795;SDS011;65745;50.278;18.192;2022-12-29T00:14:44;8.00;;;5.20;;
76795;SDS011;65745;50.278;18.192;2022-12-29T00:17:35;7.50;;;5.30;;
76795;SDS011;65745;50.278;18.192;2022-12-29T00:20:14;5.40;;;4.20;;
76795;SDS011;65745;50.278;18.192;2022-12-29T00:23:04;6.20;;;4.50;;
76795;SDS011;65745;50.278;18.192;2022-12-29T00:25:56;5.70;;;4.30;;
76795;SDS011;65745;50.278;18.192;2022-12-29T00:28:46;5.60;;;4.90;;
76795;SDS011;65745;50.278;18.192;2022-12-29T00:31:37;6.50;;;4.60;;
76795;SDS011;65745;50.278;18.192;2022-12-29T00:34:27;6.30;;;4.30;;
76795;SDS011;65745;50.278;18.192;2022-12-29T00:37:18;7.60;;;4.00;;
76795;SDS011;65745;50.278;18.192;2022-12-29T00:40:13;6.50;;;4.40;;
76795;SDS011;65745;50.278;18.192;2022-12-29T00:43:03;5.80;;;4.10;;
76795;SDS011;65745;50.278;18.192;2022-12-29T00:45:54;5.00;;;4.40;;
76795;SDS011;65745;50.278;18.192;2022-12-29T00:48:26;6.00;;;4.80;;
76795;SDS011;65745;50.278;18.192;2022-12-29T00:51:16;7.10;;;5.00;;
76795;SDS011;65745;50.278;18.192;2022-12-29T00:53:51;6.90;;;4.70;;
76795;SDS011;65745;50.278;18.192;2022-12-29T00:56:24;8.70;;;5.10;;
76795;SDS011;65745;50.278;18.192;2022-12-29T00:58:56;4.80;;;3.80;;
76795;SDS011;65745;50.278;18.192;2022-12-29T01:01:32;8.60;;;4.60;;
76795;SDS011;65745;50.278;18.192;2022-12-29T01:04:05;7.60;;;4.50;;
76795;SDS011;65745;50.278;18.192;2022-12-29T01:06:38;6.30;;;4.20;;
76795;SDS011;65745;50.278;18.192;2022-12-29T01:09:17;5.80;;;4.60;;
76795;SDS011;65745;50.278;18.192;2022-12-29T01:12:18;7.30;;;4.30;;
76795;SDS011;65745;50.278;18.192;2022-12-29T01:15:15;5.40;;;3.70;;
76795;SDS011;65745;50.278;18.192;2022-12-29T01:17:50;6.20;;;4.60;;
76795;SDS011;65745;50.278;18.192;2022-12-29T01:20:22;6.40;;;5.00;;
76795;SDS011;65745;50.278;18.192;2022-12-29T01:22:57;6.80;;;4.90;;
76795;SDS011;65745;50.278;18.192;2022-12-29T01:25:30;6.90;;;4.50;;
76795;SDS011;65745;50.278;18.192;2022-12-29T01:28:02;5.30;;;4.60;;
76795;SDS011;65745;50.278;18.192;2022-12-29T01:30:57;5.90;;;5.10;;
76795;SDS011;65745;50.278;18.192;2022-12-29T01:33:32;6.10;;;4.60;;
76795;SDS011;65745;50.278;18.192;2022-12-29T01:36:04;6.70;;;5.00;;
76795;SDS011;65745;50.278;18.192;2022-12-29T01:38:40;6.90;;;4.90;;
76795;SDS011;65745;50.278;18.192;2022-12-29T01:41:14;5.70;;;4.40;;
76795;SDS011;65745;50.278;18.192;2022-12-29T01:43:48;6.30;;;4.60;;
76795;SDS011;65745;50.278;18.192;2022-12-29T01:46:24;6.30;;;5.10;;
76795;SDS011;65745;50.278;18.192;2022-12-29T01:49:02;7.20;;;4.30;;
76795;SDS011;65745;50.278;18.192;2022-12-29T01:51:47;6.20;;;4.50;;
76795;SDS011;65745;50.278;18.192;2022-12-29T01:54:23;7.50;;;5.10;;
76795;SDS011;65745;50.278;18.192;2022-12-29T01:56:59;6.40;;;4.10;;
76795;SDS011;65745;50.278;18.192;2022-12-29T01:59:36;7.80;;;4.80;;
76795;SDS011;65745;50.278;18.192;2022-12-29T02:02:19;6.30;;;4.30;;
76795;SDS011;65745;50.278;18.192;2022-12-29T02:04:52;6.60;;;5.10;;
76795;SDS011;65745;50.278;18.192;2022-12-29T02:07:32;6.50;;;5.20;;
76795;SDS011;65745;50.278;18.192;2022-12-29T02:10:05;6.50;;;5.00;;
76795;SDS011;65745;50.278;18.192;2022-12-29T02:12:38;6.50;;;5.00;;
76795;SDS011;65745;50.278;18.192;2022-12-29T02:15:11;6.10;;;4.70;;
76795;SDS011;65745;50.278;18.192;2022-12-29T02:17:56;7.50;;;5.30;;
76795;SDS011;65745;50.278;18.192;2022-12-29T02:20:54;8.70;;;5.50;;
76795;SDS011;65745;50.278;18.192;2022-12-29T02:26:51;6.80;;;4.40;;
76795;SDS011;65745;50.278;18.192;2022-12-29T02:29:57;6.00;;;4.50;;
76795;SDS011;65745;50.278;18.192;2022-12-29T02:32:40;5.90;;;4.50;;
76795;SDS011;65745;50.278;18.192;2022-12-29T02:35:25;5.30;;;4.50;;
76795;SDS011;65745;50.278;18.192;2022-12-29T02:38:10;9.00;;;5.00;;
76795;SDS011;65745;50.278;18.192;2022-12-29T02:40:53;5.70;;;4.90;;
76795;SDS011;65745;50.278;18.192;2022-12-29T02:43:35;7.00;;;4.70;;
76795;SDS011;65745;50.278;18.192;2022-12-29T02:46:18;7.80;;;4.90;;
76795;SDS011;65745;50.278;18.192;2022-12-29T02:48:59;8.50;;;4.80;;
76795;SDS011;65745;50.278;18.192;2022-12-29T02:51:48;8.30;;;4.80;;
76795;SDS011;65745;50.278;18.192;2022-12-29T02:54:25;8.30;;;6.20;;
76795;SDS011;65745;50.278;18.192;2022-12-29T02:57:27;6.40;;;4.90;;
76795;SDS011;65745;50.278;18.192;2022-12-29T03:00:04;6.00;;;4.50;;
76795;SDS011;65745;50.278;18.192;2022-12-29T03:02:43;5.90;;;4.20;;
76795;SDS011;65745;50.278;18.192;2022-12-29T03:05:53;6.70;;;5.20;;
76795;SDS011;65745;50.278;18.192;2022-12-29T03:08:46;5.20;;;4.30;;
76795;SDS011;65745;50.278;18.192;2022-12-29T03:11:43;5.60;;;4.40;;
76795;SDS011;65745;50.278;18.192;2022-12-29T03:14:52;5.90;;;5.20;;
76795;SDS011;65745;50.278;18.192;2022-12-29T03:17:51;9.80;;;7.60;;
76795;SDS011;65745;50.278;18.192;2022-12-29T03:20:29;12.30;;;9.70;;
76795;SDS011;65745;50.278;18.192;2022-12-29T03:23:21;14.00;;;7.10;;
76795;SDS011;65745;50.278;18.192;2022-12-29T03:25:56;11.20;;;8.10;;
76795;SDS011;65745;50.278;18.192;2022-12-29T03:28:35;8.20;;;6.40;;
76795;SDS011;65745;50.278;18.192;2022-12-29T03:31:16;8.80;;;5.50;;
76795;SDS011;65745;50.278;18.192;2022-12-29T03:33:51;8.10;;;5.60;;
76795;SDS011;65745;50.278;18.192;2022-12-29T03:36:27;6.10;;;5.10;;
76795;SDS011;65745;50.278;18.192;2022-12-29T03:39:22;9.90;;;8.50;;
76795;SDS011;65745;50.278;18.192;2022-12-29T03:42:01;12.60;;;9.80;;
76795;SDS011;65745;50.278;18.192;2022-12-29T03:44:44;11.90;;;9.70;;
76795;SDS011;65745;50.278;18.192;2022-12-29T03:47:17;10.30;;;7.90;;
76795;SDS011;65745;50.278;18.192;2022-12-29T03:49:50;12.00;;;8.90;;
76795;SDS011;65745;50.278;18.192;2022-12-29T03:52:24;9.20;;;6.60;;
76795;SDS011;65745;50.278;18.192;2022-12-29T03:54:59;7.50;;;5.80;;
76795;SDS011;65745;50.278;18.192;2022-12-29T03:57:32;7.60;;;5.50;;
76795;SDS011;65745;50.278;18.192;2022-12-29T04:00:08;7.80;;;5.20;;
76795;SDS011;65745;50.278;18.192;2022-12-29T04:02:47;7.10;;;6.20;;
76795;SDS011;65745;50.278;18.192;2022-12-29T04:05:22;7.10;;;5.20;;
76795;SDS011;65745;50.278;18.192;2022-12-29T04:07:57;9.40;;;6.90;;
76795;SDS011;65745;50.278;18.192;2022-12-29T04:10:29;10.60;;;7.30;;
76795;SDS011;65745;50.278;18.192;2022-12-29T04:13:04;10.70;;;7.70;;
76795;SDS011;65745;50.278;18.192;2022-12-29T04:15:49;8.80;;;5.70;;
76795;SDS011;65745;50.278;18.192;2022-12-29T04:18:22;6.10;;;4.30;;
76795;SDS011;65745;50.278;18.192;2022-12-29T04:20:54;6.10;;;5.00;;
76795;SDS011;65745;50.278;18.192;2022-12-29T04:23:31;5.30;;;4.10;;
76795;SDS011;65745;50.278;18.192;2022-12-29T04:26:06;4.80;;;3.70;;
76795;SDS011;65745;50.278;18.192;2022-12-29T04:28:51;6.50;;;4.40;;
76795;SDS011;65745;50.278;18.192;2022-12-29T04:31:33;5.60;;;4.70;;
76795;SDS011;65745;50.278;18.192;2022-12-29T04:34:06;8.10;;;6.10;;
76795;SDS011;65745;50.278;18.192;2022-12-29T04:36:51;6.00;;;4.40;;
76795;SDS011;65745;50.278;18.192;2022-12-29T04:39:24;7.90;;;5.10;;
76795;SDS011;65745;50.278;18.192;2022-12-29T04:41:56;8.50;;;6.20;;
76795;SDS011;65745;50.278;18.192;2022-12-29T04:44:31;6.00;;;4.70;;
76795;SDS011;65745;50.278;18.192;2022-12-29T04:47:39;8.00;;;5.60;;
76795;SDS011;65745;50.278;18.192;2022-12-29T04:50:52;6.90;;;5.20;;
76795;SDS011;65745;50.278;18.192;2022-12-29T04:53:27;6.40;;;5.00;;
76795;SDS011;65745;50.278;18.192;2022-12-29T04:56:06;7.80;;;5.50;;
76795;SDS011;65745;50.278;18.192;2022-12-29T04:58:45;7.60;;;5.00;;
76795;SDS011;65745;50.278;18.192;2022-12-29T05:01:18;6.90;;;4.60;;
76795;SDS011;65745;50.278;18.192;2022-12-29T05:03:51;6.30;;;4.90;;
76795;SDS011;65745;50.278;18.192;2022-12-29T05:06:24;6.60;;;5.20;;
76795;SDS011;65745;50.278;18.192;2022-12-29T05:08:57;5.70;;;4.60;;
76795;SDS011;65745;50.278;18.192;2022-12-29T05:11:29;6.10;;;5.30;;
76795;SDS011;65745;50.278;18.192;2022-12-29T05:14:08;5.30;;;3.70;;
76795;SDS011;65745;50.278;18.192;2022-12-29T05:16:47;6.30;;;5.40;;
76795;SDS011;65745;50.278;18.192;2022-12-29T05:19:19;5.40;;;4.00;;
76795;SDS011;65745;50.278;18.192;2022-12-29T05:21:55;7.20;;;5.20;;
76795;SDS011;65745;50.278;18.192;2022-12-29T05:24:31;6.00;;;4.20;;
76795;SDS011;65745;50.278;18.192;2022-12-29T05:27:03;8.00;;;5.70;;
76795;SDS011;65745;50.278;18.192;2022-12-29T05:29:50;6.80;;;4.50;;
76795;SDS011;65745;50.278;18.192;2022-12-29T05:32:22;7.10;;;5.70;;
76795;SDS011;65745;50.278;18.192;2022-12-29T05:34:55;6.80;;;4.40;;
76795;SDS011;65745;50.278;18.192;2022-12-29T05:37:31;6.70;;;5.40;;
76795;SDS011;65745;50.278;18.192;2022-12-29T05:40:05;7.20;;;5.70;;
76795;SDS011;65745;50.278;18.192;2022-12-29T05:42:39;6.30;;;5.40;;
76795;SDS011;65745;50.278;18.192;2022-12-29T05:45:32;6.10;;;3.90;;
76795;SDS011;65745;50.278;18.192;2022-12-29T05:48:24;6.10;;;3.90;;
76795;SDS011;65745;50.278;18.192;2022-12-29T05:51:20;8.70;;;4.60;;
76795;SDS011;65745;50.278;18.192;2022-12-29T05:53:55;7.90;;;5.50;;
76795;SDS011;65745;50.278;18.192;2022-12-29T05:56:29;5.70;;;4.80;;
76795;SDS011;65745;50.278;18.192;2022-12-29T05:59:04;5.70;;;4.80;;
76795;SDS011;65745;50.278;18.192;2022-12-29T06:01:37;7.10;;;5.30;;
76795;SDS011;65745;50.278;18.192;2022-12-29T06:04:09;6.70;;;4.40;;
76795;SDS011;65745;50.278;18.192;2022-12-29T06:06:42;7.70;;;5.10;;
76795;SDS011;65745;50.278;18.192;2022-12-29T06:09:25;5.60;;;4.90;;
76795;SDS011;65745;50.278;18.192;2022-12-29T06:11:57;6.20;;;4.50;;
76795;SDS011;65745;50.278;18.192;2022-12-29T06:14:30;6.40;;;5.40;;
76795;SDS011;65745;50.278;18.192;2022-12-29T06:17:04;6.00;;;4.30;;
76795;SDS011;65745;50.278;18.192;2022-12-29T06:19:37;6.70;;;4.80;;
76795;SDS011;65745;50.278;18.192;2022-12-29T06:24:50;6.40;;;4.30;;
76795;SDS011;65745;50.278;18.192;2022-12-29T06:27:28;8.00;;;5.90;;
76795;SDS011;65745;50.278;18.192;2022-12-29T06:30:02;7.70;;;5.90;;
76795;SDS011;65745;50.278;18.192;2022-12-29T06:32:35;8.10;;;5.90;;
76795;SDS011;65745;50.278;18.192;2022-12-29T06:35:10;6.70;;;4.60;;
76795;SDS011;65745;50.278;18.192;2022-12-29T06:37:53;10.10;;;5.40;;
76795;SDS011;65745;50.278;18.192;2022-12-29T06:40:26;6.00;;;4.80;;
76795;SDS011;65745;50.278;18.192;2022-12-29T06:43:17;7.50;;;5.10;;
76795;SDS011;65745;50.278;18.192;2022-12-29T06:46:00;6.70;;;4.90;;
76795;SDS011;65745;50.278;18.192;2022-12-29T06:48:35;6.60;;;4.60;;
76795;SDS011;65745;50.278;18.192;2022-12-29T06:51:17;8.50;;;6.50;;
76795;SDS011;65745;50.278;18.192;2022-12-29T06:53:50;7.10;;;5.50;;
76795;SDS011;65745;50.278;18.192;2022-12-29T06:59:52;7.60;;;6.10;;
76795;SDS011;65745;50.278;18.192;2022-12-29T07:02:26;8.70;;;6.90;;
76795;SDS011;65745;50.278;18.192;2022-12-29T07:05:00;9.30;;;6.30;;
76795;SDS011;65745;50.278;18.192;2022-12-29T07:07:36;8.70;;;6.00;;
76795;SDS011;65745;50.278;18.192;2022-12-29T07:10:17;9.00;;;6.30;;
76795;SDS011;65745;50.278;18.192;2022-12-29T07:12:52;10.70;;;6.60;;
76795;SDS011;65745;50.278;18.192;2022-12-29T07:15:28;10.30;;;7.00;;
76795;SDS011;65745;50.278;18.192;2022-12-29T07:18:01;9.30;;;7.00;;
76795;SDS011;65745;50.278;18.192;2022-12-29T07:20:34;9.40;;;6.90;;
76795;SDS011;65745;50.278;18.192;2022-12-29T07:23:06;8.30;;;5.60;;
76795;SDS011;65745;50.278;18.192;2022-12-29T07:25:41;7.20;;;5.60;;
76795;SDS011;65745;50.278;18.192;2022-12-29T07:28:19;8.00;;;5.40;;
76795;SDS011;65745;50.278;18.192;2022-12-29T07:30:51;7.60;;;5.30;;
76795;SDS011;65745;50.278;18.192;2022-12-29T07:33:24;7.00;;;5.20;;
76795;SDS011;65745;50.278;18.192;2022-12-29T07:35:59;9.30;;;6.30;;
76795;SDS011;65745;50.278;18.192;2022-12-29T07:38:34;6.70;;;5.20;;
76795;SDS011;65745;50.278;18.192;2022-12-29T07:41:06;12.40;;;6.40;;
76795;SDS011;65745;50.278;18.192;2022-12-29T07:43:39;9.00;;;7.00;;
76795;SDS011;65745;50.278;18.192;2022-12-29T07:46:47;7.70;;;6.60;;
76795;SDS011;65745;50.278;18.192;2022-12-29T07:49:25;9.00;;;6.70;;
76795;SDS011;65745;50.278;18.192;2022-12-29T07:51:57;11.90;;;8.30;;
76795;SDS011;65745;50.278;18.192;2022-12-29T07:54:29;9.90;;;6.80;;
76795;SDS011;65745;50.278;18.192;2022-12-29T07:57:05;10.30;;;7.40;;
76795;SDS011;65745;50.278;18.192;2022-12-29T07:59:44;12.80;;;9.10;;
76795;SDS011;65745;50.278;18.192;2022-12-29T08:02:17;14.00;;;10.40;;
76795;SDS011;65745;50.278;18.192;2022-12-29T08:04:52;20.60;;;14.20;;
76795;SDS011;65745;50.278;18.192;2022-12-29T08:07:31;15.20;;;10.50;;
76795;SDS011;65745;50.278;18.192;2022-12-29T08:10:20;10.10;;;7.20;;
76795;SDS011;65745;50.278;18.192;2022-12-29T08:12:53;12.00;;;8.00;;
76795;SDS011;65745;50.278;18.192;2022-12-29T08:15:25;12.50;;;8.80;;
76795;SDS011;65745;50.278;18.192;2022-12-29T08:18:02;12.40;;;8.70;;
76795;SDS011;65745;50.278;18.192;2022-12-29T08:20:52;10.70;;;8.90;;
76795;SDS011;65745;50.278;18.192;2022-12-29T08:23:31;13.20;;;10.10;;
76795;SDS011;65745;50.278;18.192;2022-12-29T08:26:04;9.00;;;7.50;;
76795;SDS011;65745;50.278;18.192;2022-12-29T08:28:38;9.40;;;7.10;;
76795;SDS011;65745;50.278;18.192;2022-12-29T08:31:13;9.80;;;7.40;;
76795;SDS011;65745;50.278;18.192;2022-12-29T08:33:49;10.10;;;7.80;;
76795;SDS011;65745;50.278;18.192;2022-12-29T08:36:23;12.20;;;8.00;;
76795;SDS011;65745;50.278;18.192;2022-12-29T08:39:02;12.40;;;9.60;;
76795;SDS011;65745;50.278;18.192;2022-12-29T08:41:35;11.70;;;8.20;;
76795;SDS011;65745;50.278;18.192;2022-12-29T08:44:20;9.30;;;7.40;;
76795;SDS011;65745;50.278;18.192;2022-12-29T08:46:57;9.90;;;8.00;;
76795;SDS011;65745;50.278;18.192;2022-12-29T08:49:30;14.30;;;9.70;;
76795;SDS011;65745;50.278;18.192;2022-12-29T08:52:03;14.40;;;9.80;;
76795;SDS011;65745;50.278;18.192;2022-12-29T08:54:36;11.50;;;8.90;;
76795;SDS011;65745;50.278;18.192;2022-12-29T08:57:08;14.40;;;11.50;;
76795;SDS011;65745;50.278;18.192;2022-12-29T08:59:51;12.00;;;9.60;;
76795;SDS011;65745;50.278;18.192;2022-12-29T09:02:25;11.30;;;8.30;;
76795;SDS011;65745;50.278;18.192;2022-12-29T09:04:57;10.50;;;6.80;;
76795;SDS011;65745;50.278;18.192;2022-12-29T09:07:30;11.40;;;8.50;;
76795;SDS011;65745;50.278;18.192;2022-12-29T09:10:03;11.40;;;8.60;;
76795;SDS011;65745;50.278;18.192;2022-12-29T09:12:37;12.60;;;9.40;;
76795;SDS011;65745;50.278;18.192;2022-12-29T09:15:10;13.80;;;9.60;;
76795;SDS011;65745;50.278;18.192;2022-12-29T09:17:52;11.30;;;7.90;;
76795;SDS011;65745;50.278;18.192;2022-12-29T09:20:25;13.60;;;9.00;;
76795;SDS011;65745;50.278;18.192;2022-12-29T09:22:58;9.00;;;7.50;;
76795;SDS011;65745;50.278;18.192;2022-12-29T09:25:31;13.00;;;9.50;;
76795;SDS011;65745;50.278;18.192;2022-12-29T09:28:03;10.80;;;8.40;;
76795;SDS011;65745;50.278;18.192;2022-12-29T09:30:41;9.50;;;8.30;;
76795;SDS011;65745;50.278;18.192;2022-12-29T09:33:22;9.10;;;7.50;;
76795;SDS011;65745;50.278;18.192;2022-12-29T09:35:58;8.60;;;7.40;;
76795;SDS011;65745;50.278;18.192;2022-12-29T09:38:30;9.50;;;8.40;;
76795;SDS011;65745;50.278;18.192;2022-12-29T09:41:05;9.30;;;7.20;;
76795;SDS011;65745;50.278;18.192;2022-12-29T09:44:01;8.30;;;6.90;;
76795;SDS011;65745;50.278;18.192;2022-12-29T09:46:40;11.00;;;7.80;;
76795;SDS011;65745;50.278;18.192;2022-12-29T09:49:23;10.10;;;7.40;;
76795;SDS011;65745;50.278;18.192;2022-12-29T09:52:02;11.00;;;9.00;;
76795;SDS011;65745;50.278;18.192;2022-12-29T09:54:55;10.00;;;7.90;;
76795;SDS011;65745;50.278;18.192;2022-12-29T09:57:40;11.00;;;6.60;;
76795;SDS011;65745;50.278;18.192;2022-12-29T10:00:22;9.80;;;7.10;;
76795;SDS011;65745;50.278;18.192;2022-12-29T10:03:02;8.60;;;6.00;;
76795;SDS011;65745;50.278;18.192;2022-12-29T10:05:46;9.80;;;7.20;;
76795;SDS011;65745;50.278;18.192;2022-12-29T10:08:28;10.00;;;7.70;;
76795;SDS011;65745;50.278;18.192;2022-12-29T10:11:09;9.70;;;7.10;;
76795;SDS011;65745;50.278;18.192;2022-12-29T10:13:57;9.20;;;6.80;;
76795;SDS011;65745;50.278;18.192;2022-12-29T10:16:46;8.70;;;6.40;;
76795;SDS011;65745;50.278;18.192;2022-12-29T10:19:34;8.10;;;6.60;;
76795;SDS011;65745;50.278;18.192;2022-12-29T10:22:20;10.20;;;7.00;;
76795;SDS011;65745;50.278;18.192;2022-12-29T10:25:06;10.80;;;7.60;;
76795;SDS011;65745;50.278;18.192;2022-12-29T10:27:43;9.30;;;6.70;;
76795;SDS011;65745;50.278;18.192;2022-12-29T10:30:18;9.90;;;6.90;;
76795;SDS011;65745;50.278;18.192;2022-12-29T10:32:51;8.00;;;6.10;;
76795;SDS011;65745;50.278;18.192;2022-12-29T10:35:29;10.30;;;6.70;;
76795;SDS011;65745;50.278;18.192;2022-12-29T10:38:09;10.10;;;7.10;;
76795;SDS011;65745;50.278;18.192;2022-12-29T10:40:47;10.90;;;7.10;;
76795;SDS011;65745;50.278;18.192;2022-12-29T10:43:27;9.40;;;7.10;;
76795;SDS011;65745;50.278;18.192;2022-12-29T10:46:05;8.60;;;6.00;;
76795;SDS011;65745;50.278;18.192;2022-12-29T10:48:43;10.00;;;6.30;;
76795;SDS011;65745;50.278;18.192;2022-12-29T10:51:24;11.60;;;7.10;;
76795;SDS011;65745;50.278;18.192;2022-12-29T10:53:59;10.70;;;7.10;;
76795;SDS011;65745;50.278;18.192;2022-12-29T10:56:35;8.00;;;6.30;;
76795;SDS011;65745;50.278;18.192;2022-12-29T10:59:20;10.00;;;6.70;;
76795;SDS011;65745;50.278;18.192;2022-12-29T11:01:58;10.00;;;7.10;;
76795;SDS011;65745;50.278;18.192;2022-12-29T11:04:57;11.40;;;6.90;;
76795;SDS011;65745;50.278;18.192;2022-12-29T11:07:33;10.10;;;6.50;;
76795;SDS011;65745;50.278;18.192;2022-12-29T11:10:20;7.20;;;5.90;;
76795;SDS011;65745;50.278;18.192;2022-12-29T11:13:01;9.50;;;6.40;;
76795;SDS011;65745;50.278;18.192;2022-12-29T11:15:50;9.20;;;6.30;;
76795;SDS011;65745;50.278;18.192;2022-12-29T11:20:58;6.90;;;5.40;;
76795;SDS011;65745;50.278;18.192;2022-12-29T11:23:34;9.30;;;6.20;;
76795;SDS011;65745;50.278;18.192;2022-12-29T11:26:12;8.00;;;6.60;;
76795;SDS011;65745;50.278;18.192;2022-12-29T11:31:58;8.80;;;6.50;;
76795;SDS011;65745;50.278;18.192;2022-12-29T11:34:41;8.90;;;6.90;;
76795;SDS011;65745;50.278;18.192;2022-12-29T11:37:25;9.70;;;6.60;;
76795;SDS011;65745;50.278;18.192;2022-12-29T11:40:01;7.00;;;5.30;;
76795;SDS011;65745;50.278;18.192;2022-12-29T11:42:38;9.30;;;6.90;;
76795;SDS011;65745;50.278;18.192;2022-12-29T11:45:24;12.20;;;7.20;;
76795;SDS011;65745;50.278;18.192;2022-12-29T11:48:05;10.60;;;6.80;;
76795;SDS011;65745;50.278;18.192;2022-12-29T11:50:41;8.50;;;6.70;;
76795;SDS011;65745;50.278;18.192;2022-12-29T11:53:22;8.30;;;6.30;;
76795;SDS011;65745;50.278;18.192;2022-12-29T11:55:58;7.60;;;6.30;;
76795;SDS011;65745;50.278;18.192;2022-12-29T11:58:36;8.20;;;5.50;;
76795;SDS011;65745;50.278;18.192;2022-12-29T12:01:13;10.10;;;7.00;;
76795;SDS011;65745;50.278;18.192;2022-12-29T12:04:03;9.80;;;6.10;;
76795;SDS011;65745;50.278;18.192;2022-12-29T12:06:53;12.60;;;8.60;;
76795;SDS011;65745;50.278;18.192;2022-12-29T12:09:32;20.90;;;11.40;;
76795;SDS011;65745;50.278;18.192;2022-12-29T12:12:41;11.10;;;8.30;;
76795;SDS011;65745;50.278;18.192;2022-12-29T12:15:27;8.40;;;6.10;;
76795;SDS011;65745;50.278;18.192;2022-12-29T12:18:18;9.10;;;6.50;;
76795;SDS011;65745;50.278;18.192;2022-12-29T12:21:03;9.80;;;6.50;;
76795;SDS011;65745;50.278;18.192;2022-12-29T12:23:43;10.30;;;7.00;;
76795;SDS011;65745;50.278;18.192;2022-12-29T12:26:27;8.20;;;6.20;;
76795;SDS011;65745;50.278;18.192;2022-12-29T12:29:08;10.50;;;7.10;;
76795;SDS011;65745;50.278;18.192;2022-12-29T12:31:51;10.70;;;8.00;;
76795;SDS011;65745;50.278;18.192;2022-12-29T12:34:30;9.50;;;8.10;;
76795;SDS011;65745;50.278;18.192;2022-12-29T12:40:18;10.20;;;7.60;;
76795;SDS011;65745;50.278;18.192;2022-12-29T12:43:09;8.50;;;6.80;;
76795;SDS011;65745;50.278;18.192;2022-12-29T12:45:55;9.30;;;6.90;;
76795;SDS011;65745;50.278;18.192;2022-12-29T12:48:44;8.90;;;6.30;;
76795;SDS011;65745;50.278;18.192;2022-12-29T12:51:36;8.40;;;6.70;;
76795;SDS011;65745;50.278;18.192;2022-12-29T12:54:28;10.10;;;6.70;;
76795;SDS011;65745;50.278;18.192;2022-12-29T12:57:16;7.80;;;6.60;;
76795;SDS011;65745;50.278;18.192;2022-12-29T13:00:00;7.60;;;6.30;;
76795;SDS011;65745;50.278;18.192;2022-12-29T13:02:40;10.10;;;7.60;;
76795;SDS011;65745;50.278;18.192;2022-12-29T13:05:25;9.30;;;6.80;;
76795;SDS011;65745;50.278;18.192;2022-12-29T13:08:23;8.10;;;6.30;;
76795;SDS011;65745;50.278;18.192;2022-12-29T13:11:10;8.50;;;6.30;;
76795;SDS011;65745;50.278;18.192;2022-12-29T13:13:55;10.10;;;6.60;;
76795;SDS011;65745;50.278;18.192;2022-12-29T13:16:49;12.00;;;7.30;;
76795;SDS011;65745;50.278;18.192;2022-12-29T13:19:33;7.70;;;5.10;;
76795;SDS011;65745;50.278;18.192;2022-12-29T13:22:21;9.60;;;6.10;;
76795;SDS011;65745;50.278;18.192;2022-12-29T13:25:07;9.70;;;6.30;;
76795;SDS011;65745;50.278;18.192;2022-12-29T13:27:58;9.90;;;6.30;;
76795;SDS011;65745;50.278;18.192;2022-12-29T13:30:38;10.00;;;6.60;;
76795;SDS011;65745;50.278;18.192;2022-12-29T13:33:24;9.70;;;6.50;;
76795;SDS011;65745;50.278;18.192;2022-12-29T13:36:12;8.60;;;5.90;;
76795;SDS011;65745;50.278;18.192;2022-12-29T13:38:53;10.80;;;6.70;;
76795;SDS011;65745;50.278;18.192;2022-12-29T13:41:34;7.10;;;5.10;;
76795;SDS011;65745;50.278;18.192;2022-12-29T13:44:17;8.50;;;5.80;;
76795;SDS011;65745;50.278;18.192;2022-12-29T13:47:08;10.00;;;7.30;;
76795;SDS011;65745;50.278;18.192;2022-12-29T13:49:54;9.70;;;6.40;;
76795;SDS011;65745;50.278;18.192;2022-12-29T13:52:34;9.50;;;6.20;;
76795;SDS011;65745;50.278;18.192;2022-12-29T13:55:26;9.10;;;6.90;;
76795;SDS011;65745;50.278;18.192;2022-12-29T13:58:03;8.70;;;6.10;;
76795;SDS011;65745;50.278;18.192;2022-12-29T14:00:56;9.70;;;6.90;;
76795;SDS011;65745;50.278;18.192;2022-12-29T14:06:27;11.90;;;8.30;;
76795;SDS011;65745;50.278;18.192;2022-12-29T14:09:04;10.00;;;6.80;;
76795;SDS011;65745;50.278;18.192;2022-12-29T14:12:19;9.90;;;7.30;;
76795;SDS011;65745;50.278;18.192;2022-12-29T14:15:15;13.90;;;10.40;;
76795;SDS011;65745;50.278;18.192;2022-12-29T14:18:05;14.70;;;11.40;;
76795;SDS011;65745;50.278;18.192;2022-12-29T14:20:51;11.20;;;9.20;;
76795;SDS011;65745;50.278;18.192;2022-12-29T14:23:28;13.20;;;9.80;;
76795;SDS011;65745;50.278;18.192;2022-12-29T14:26:17;10.40;;;9.30;;
76795;SDS011;65745;50.278;18.192;2022-12-29T14:38:23;19.10;;;14.50;;
76795;SDS011;65745;50.278;18.192;2022-12-29T14:44:11;18.40;;;15.20;;
76795;SDS011;65745;50.278;18.192;2022-12-29T14:46:54;17.90;;;13.80;;
76795;SDS011;65745;50.278;18.192;2022-12-29T14:49:29;16.10;;;11.60;;
76795;SDS011;65745;50.278;18.192;2022-12-29T14:52:14;11.50;;;8.30;;
76795;SDS011;65745;50.278;18.192;2022-12-29T14:54:54;12.40;;;8.20;;
76795;SDS011;65745;50.278;18.192;2022-12-29T14:57:34;10.80;;;8.10;;
76795;SDS011;65745;50.278;18.192;2022-12-29T15:00:16;11.80;;;8.20;;
76795;SDS011;65745;50.278;18.192;2022-12-29T15:05:54;13.60;;;11.20;;
76795;SDS011;65745;50.278;18.192;2022-12-29T15:08:37;16.00;;;11.90;;
76795;SDS011;65745;50.278;18.192;2022-12-29T15:11:20;13.60;;;10.20;;
76795;SDS011;65745;50.278;18.192;2022-12-29T15:13:54;14.60;;;10.90;;
76795;SDS011;65745;50.278;18.192;2022-12-29T15:16:29;18.00;;;13.60;;
76795;SDS011;65745;50.278;18.192;2022-12-29T15:19:05;14.90;;;11.30;;
76795;SDS011;65745;50.278;18.192;2022-12-29T15:21:55;26.70;;;14.00;;
76795;SDS011;65745;50.278;18.192;2022-12-29T15:24:32;16.20;;;11.40;;
76795;SDS011;65745;50.278;18.192;2022-12-29T15:27:12;23.10;;;14.90;;
76795;SDS011;65745;50.278;18.192;2022-12-29T15:29:46;25.90;;;20.10;;
76795;SDS011;65745;50.278;18.192;2022-12-29T15:32:29;24.70;;;16.50;;
76795;SDS011;65745;50.278;18.192;2022-12-29T15:35:23;19.50;;;14.00;;
76795;SDS011;65745;50.278;18.192;2022-12-29T15:38:14;19.00;;;10.00;;
76795;SDS011;65745;50.278;18.192;2022-12-29T15:41:02;17.40;;;12.90;;
76795;SDS011;65745;50.278;18.192;2022-12-29T15:44:00;15.10;;;9.70;;
76795;SDS011;65745;50.278;18.192;2022-12-29T15:46:44;15.50;;;9.80;;
76795;SDS011;65745;50.278;18.192;2022-12-29T15:49:16;19.60;;;12.40;;
76795;SDS011;65745;50.278;18.192;2022-12-29T15:52:00;16.40;;;11.50;;
76795;SDS011;65745;50.278;18.192;2022-12-29T15:54:39;13.40;;;10.60;;
76795;SDS011;65745;50.278;18.192;2022-12-29T15:57:19;14.50;;;10.30;;
76795;SDS011;65745;50.278;18.192;2022-12-29T15:59:58;13.90;;;9.80;;
76795;SDS011;65745;50.278;18.192;2022-12-29T16:02:40;10.90;;;7.80;;
76795;SDS011;65745;50.278;18.192;2022-12-29T16:05:14;12.90;;;9.70;;
76795;SDS011;65745;50.278;18.192;2022-12-29T16:07:55;17.10;;;10.20;;
76795;SDS011;65745;50.278;18.192;2022-12-29T16:10:31;12.90;;;9.40;;
76795;SDS011;65745;50.278;18.192;2022-12-29T16:13:12;11.90;;;9.70;;
76795;SDS011;65745;50.278;18.192;2022-12-29T16:16:07;13.30;;;9.60;;
76795;SDS011;65745;50.278;18.192;2022-12-29T16:18:44;16.10;;;11.60;;
76795;SDS011;65745;50.278;18.192;2022-12-29T16:21:26;13.60;;;9.50;;
76795;SDS011;65745;50.278;18.192;2022-12-29T16:24:04;10.80;;;8.40;;